sensor_id;sensor_type;location;lat;lon;timestamp;temperature;humidity
21582;DHT22;10952;50.836;4.348;2024-03-02T00:00:10;7.80;99.90
21582;DHT22;10952;50.836;4.348;2024-03-02T00:05:07;7.80;99.90
21582;DHT22;10952;50.836;4.348;2024-03-02T00:07:33;7.70;99.90
21582;DHT22;10952;50.836;4.348;2024-03-02T00:09:59;7.80;99.90
21582;DHT22;10952;50.836;4.348;2024-03-02T00:12:25;7.70;99.90
21582;DHT22;10952;50.836;4.348;2024-03-02T00:14:51;7.70;99.90
21582;DHT22;10952;50.836;4.348;2024-03-02T00:17:24;7.70;99.90
21582;DHT22;10952;50.836;4.348;2024-03-02T00:19:51;7.70;99.90
21582;DHT22;10952;50.836;4.348;2024-03-02T00:22:17;7.80;99.90
21582;DHT22;10952;50.836;4.348;2024-03-02T00:24:43;7.80;99.90
21582;DHT22;10952;50.836;4.348;2024-03-02T00:27:13;7.80;99.90
21582;DHT22;10952;50.836;4.348;2024-03-02T00:29:40;7.80;99.90
21582;DHT22;10952;50.836;4.348;2024-03-02T00:32:12;7.80;99.90
21582;DHT22;10952;50.836;4.348;2024-03-02T00:34:39;7.80;99.90
21582;DHT22;10952;50.836;4.348;2024-03-02T00:37:05;7.90;99.90
21582;DHT22;10952;50.836;4.348;2024-03-02T00:39:32;7.80;99.90
21582;DHT22;10952;50.836;4.348;2024-03-02T00:41:58;7.80;99.90
21582;DHT22;10952;50.836;4.348;2024-03-02T00:44:26;7.80;99.90
21582;DHT22;10952;50.836;4.348;2024-03-02T00:46:53;7.80;99.90
21582;DHT22;10952;50.836;4.348;2024-03-02T00:49:24;7.80;99.90
21582;DHT22;10952;50.836;4.348;2024-03-02T00:51:54;7.80;99.90
21582;DHT22;10952;50.836;4.348;2024-03-02T00:54:21;7.80;99.90
21582;DHT22;10952;50.836;4.348;2024-03-02T00:56:50;7.80;99.90
21582;DHT22;10952;50.836;4.348;2024-03-02T00:59:17;7.80;99.90
21582;DHT22;10952;50.836;4.348;2024-03-02T01:01:42;7.80;99.90
21582;DHT22;10952;50.836;4.348;2024-03-02T01:04:10;7.90;99.90
21582;DHT22;10952;50.836;4.348;2024-03-02T01:06:44;7.90;99.90
21582;DHT22;10952;50.836;4.348;2024-03-02T01:09:11;7.90;99.90
21582;DHT22;10952;50.836;4.348;2024-03-02T01:11:39;8.00;99.90
21582;DHT22;10952;50.836;4.348;2024-03-02T01:14:07;8.10;99.90
21582;DHT22;10952;50.836;4.348;2024-03-02T01:16:32;7.90;99.90
21582;DHT22;10952;50.836;4.348;2024-03-02T01:18:59;7.90;99.90
21582;DHT22;10952;50.836;4.348;2024-03-02T01:21:25;7.90;99.90
21582;DHT22;10952;50.836;4.348;2024-03-02T01:23:54;7.90;99.90
21582;DHT22;10952;50.836;4.348;2024-03-02T01:26:22;7.90;99.90
21582;DHT22;10952;50.836;4.348;2024-03-02T01:28:48;7.90;99.90
21582;DHT22;10952;50.836;4.348;2024-03-02T01:31:19;7.90;99.90
21582;DHT22;10952;50.836;4.348;2024-03-02T01:33:46;7.80;99.90
21582;DHT22;10952;50.836;4.348;2024-03-02T01:36:14;7.90;99.90
21582;DHT22;10952;50.836;4.348;2024-03-02T01:38:41;7.90;99.90
21582;DHT22;10952;50.836;4.348;2024-03-02T01:41:07;7.90;99.90
21582;DHT22;10952;50.836;4.348;2024-03-02T01:43:34;7.80;99.90
21582;DHT22;10952;50.836;4.348;2024-03-02T01:46:03;7.90;99.90
21582;DHT22;10952;50.836;4.348;2024-03-02T01:48:30;7.90;99.90
21582;DHT22;10952;50.836;4.348;2024-03-02T01:50:56;7.90;99.90
21582;DHT22;10952;50.836;4.348;2024-03-02T01:53:46;7.90;99.90
21582;DHT22;10952;50.836;4.348;2024-03-02T01:56:40;7.90;99.90
21582;DHT22;10952;50.836;4.348;2024-03-02T01:59:06;7.90;99.90
21582;DHT22;10952;50.836;4.348;2024-03-02T02:01:35;7.90;99.90
21582;DHT22;10952;50.836;4.348;2024-03-02T02:04:02;7.90;99.90
21582;DHT22;10952;50.836;4.348;2024-03-02T02:06:30;7.90;99.90
21582;DHT22;10952;50.836;4.348;2024-03-02T02:08:56;8.00;99.90
21582;DHT22;10952;50.836;4.348;2024-03-02T02:11:25;8.10;99.90
21582;DHT22;10952;50.836;4.348;2024-03-02T02:13:55;8.00;99.90
21582;DHT22;10952;50.836;4.348;2024-03-02T02:16:21;8.00;99.90
21582;DHT22;10952;50.836;4.348;2024-03-02T02:18:50;8.00;99.90
21582;DHT22;10952;50.836;4.348;2024-03-02T02:21:21;8.10;99.90
21582;DHT22;10952;50.836;4.348;2024-03-02T02:23:47;8.00;99.90
21582;DHT22;10952;50.836;4.348;2024-03-02T02:26:20;8.10;99.90
21582;DHT22;10952;50.836;4.348;2024-03-02T02:28:47;8.10;99.90
21582;DHT22;10952;50.836;4.348;2024-03-02T02:31:14;8.10;99.90
21582;DHT22;10952;50.836;4.348;2024-03-02T02:33:40;8.00;99.90
21582;DHT22;10952;50.836;4.348;2024-03-02T02:36:07;7.90;99.90
21582;DHT22;10952;50.836;4.348;2024-03-02T02:38:39;8.00;99.90
21582;DHT22;10952;50.836;4.348;2024-03-02T02:41:06;8.00;99.90
21582;DHT22;10952;50.836;4.348;2024-03-02T02:43:35;8.00;99.90
21582;DHT22;10952;50.836;4.348;2024-03-02T02:46:03;7.90;99.90
21582;DHT22;10952;50.836;4.348;2024-03-02T02:48:29;7.90;99.90
21582;DHT22;10952;50.836;4.348;2024-03-02T02:50:56;7.90;99.90
21582;DHT22;10952;50.836;4.348;2024-03-02T02:53:21;7.90;99.90
21582;DHT22;10952;50.836;4.348;2024-03-02T02:55:47;7.90;99.90
21582;DHT22;10952;50.836;4.348;2024-03-02T02:58:13;7.70;99.90
21582;DHT22;10952;50.836;4.348;2024-03-02T03:00:38;7.70;99.90
21582;DHT22;10952;50.836;4.348;2024-03-02T03:03:05;7.70;99.90
21582;DHT22;10952;50.836;4.348;2024-03-02T03:05:31;7.70;99.90
21582;DHT22;10952;50.836;4.348;2024-03-02T03:08:03;7.70;99.90
21582;DHT22;10952;50.836;4.348;2024-03-02T03:10:29;7.70;99.90
21582;DHT22;10952;50.836;4.348;2024-03-02T03:12:58;7.60;99.90
21582;DHT22;10952;50.836;4.348;2024-03-02T03:15:23;7.60;99.90
21582;DHT22;10952;50.836;4.348;2024-03-02T03:17:52;7.60;99.90
21582;DHT22;10952;50.836;4.348;2024-03-02T03:20:19;7.60;99.90
21582;DHT22;10952;50.836;4.348;2024-03-02T03:22:49;7.50;99.90
21582;DHT22;10952;50.836;4.348;2024-03-02T03:25:15;7.50;99.90
21582;DHT22;10952;50.836;4.348;2024-03-02T03:27:41;7.50;99.90
21582;DHT22;10952;50.836;4.348;2024-03-02T03:30:08;7.50;99.90
21582;DHT22;10952;50.836;4.348;2024-03-02T03:32:38;7.60;99.90
21582;DHT22;10952;50.836;4.348;2024-03-02T03:35:04;7.70;99.90
21582;DHT22;10952;50.836;4.348;2024-03-02T03:37:33;7.60;99.90
21582;DHT22;10952;50.836;4.348;2024-03-02T03:40:00;7.60;99.90
21582;DHT22;10952;50.836;4.348;2024-03-02T03:42:27;7.60;99.90
21582;DHT22;10952;50.836;4.348;2024-03-02T03:44:53;7.60;99.90
21582;DHT22;10952;50.836;4.348;2024-03-02T03:47:19;7.70;99.90
21582;DHT22;10952;50.836;4.348;2024-03-02T03:49:46;7.70;99.90
21582;DHT22;10952;50.836;4.348;2024-03-02T03:52:11;7.70;99.90
21582;DHT22;10952;50.836;4.348;2024-03-02T03:54:38;7.70;99.90
21582;DHT22;10952;50.836;4.348;2024-03-02T03:57:05;7.70;99.90
21582;DHT22;10952;50.836;4.348;2024-03-02T03:59:32;7.70;99.90
21582;DHT22;10952;50.836;4.348;2024-03-02T04:01:59;7.80;99.90
21582;DHT22;10952;50.836;4.348;2024-03-02T04:04:29;7.80;99.90
21582;DHT22;10952;50.836;4.348;2024-03-02T04:07:01;7.80;99.90
21582;DHT22;10952;50.836;4.348;2024-03-02T04:09:32;7.80;99.90
21582;DHT22;10952;50.836;4.348;2024-03-02T04:11:59;7.80;99.90
21582;DHT22;10952;50.836;4.348;2024-03-02T04:14:25;7.80;99.90
21582;DHT22;10952;50.836;4.348;2024-03-02T04:16:51;7.80;99.90
21582;DHT22;10952;50.836;4.348;2024-03-02T04:19:17;7.80;99.90
21582;DHT22;10952;50.836;4.348;2024-03-02T04:21:44;7.80;99.90
21582;DHT22;10952;50.836;4.348;2024-03-02T04:24:11;7.70;99.90
21582;DHT22;10952;50.836;4.348;2024-03-02T04:26:58;7.70;99.90
21582;DHT22;10952;50.836;4.348;2024-03-02T04:29:26;7.80;99.90
21582;DHT22;10952;50.836;4.348;2024-03-02T04:31:52;7.70;99.90
21582;DHT22;10952;50.836;4.348;2024-03-02T04:34:18;7.80;99.90
21582;DHT22;10952;50.836;4.348;2024-03-02T04:36:43;7.80;99.90
21582;DHT22;10952;50.836;4.348;2024-03-02T04:39:10;7.70;99.90
21582;DHT22;10952;50.836;4.348;2024-03-02T04:41:36;7.80;99.90
21582;DHT22;10952;50.836;4.348;2024-03-02T04:44:03;7.80;99.90
21582;DHT22;10952;50.836;4.348;2024-03-02T04:46:55;7.80;99.90
21582;DHT22;10952;50.836;4.348;2024-03-02T04:49:25;7.80;99.90
21582;DHT22;10952;50.836;4.348;2024-03-02T04:51:55;7.70;99.90
21582;DHT22;10952;50.836;4.348;2024-03-02T04:54:28;7.70;99.90
21582;DHT22;10952;50.836;4.348;2024-03-02T04:56:56;7.80;99.90
21582;DHT22;10952;50.836;4.348;2024-03-02T04:59:24;7.80;99.90
21582;DHT22;10952;50.836;4.348;2024-03-02T05:01:50;7.80;99.90
21582;DHT22;10952;50.836;4.348;2024-03-02T05:04:17;7.70;99.90
21582;DHT22;10952;50.836;4.348;2024-03-02T05:06:44;7.70;99.90
21582;DHT22;10952;50.836;4.348;2024-03-02T05:09:16;7.60;99.90
21582;DHT22;10952;50.836;4.348;2024-03-02T05:11:46;7.60;99.90
21582;DHT22;10952;50.836;4.348;2024-03-02T05:14:25;7.60;99.90
21582;DHT22;10952;50.836;4.348;2024-03-02T05:16:51;7.50;99.90
21582;DHT22;10952;50.836;4.348;2024-03-02T05:19:19;7.40;99.90
21582;DHT22;10952;50.836;4.348;2024-03-02T05:21:54;7.50;99.90
21582;DHT22;10952;50.836;4.348;2024-03-02T05:24:21;7.40;99.90
21582;DHT22;10952;50.836;4.348;2024-03-02T05:26:53;7.50;99.90
21582;DHT22;10952;50.836;4.348;2024-03-02T05:29:19;7.40;99.90
21582;DHT22;10952;50.836;4.348;2024-03-02T05:31:46;7.40;99.90
21582;DHT22;10952;50.836;4.348;2024-03-02T05:34:12;7.40;99.90
21582;DHT22;10952;50.836;4.348;2024-03-02T05:36:37;7.30;99.90
21582;DHT22;10952;50.836;4.348;2024-03-02T05:39:07;7.30;99.90
21582;DHT22;10952;50.836;4.348;2024-03-02T05:41:35;7.30;99.90
21582;DHT22;10952;50.836;4.348;2024-03-02T05:44:01;7.40;99.90
21582;DHT22;10952;50.836;4.348;2024-03-02T05:46:29;7.30;99.90
21582;DHT22;10952;50.836;4.348;2024-03-02T05:48:54;7.30;99.90
21582;DHT22;10952;50.836;4.348;2024-03-02T05:51:20;7.20;99.90
21582;DHT22;10952;50.836;4.348;2024-03-02T05:53:47;7.20;99.90
21582;DHT22;10952;50.836;4.348;2024-03-02T05:56:15;7.20;99.90
21582;DHT22;10952;50.836;4.348;2024-03-02T05:58:41;7.20;99.90
21582;DHT22;10952;50.836;4.348;2024-03-02T06:01:06;7.20;99.90
21582;DHT22;10952;50.836;4.348;2024-03-02T06:03:32;7.10;99.90
21582;DHT22;10952;50.836;4.348;2024-03-02T06:06:03;7.10;99.90
21582;DHT22;10952;50.836;4.348;2024-03-02T06:08:29;7.10;99.90
21582;DHT22;10952;50.836;4.348;2024-03-02T06:10:56;7.10;99.90
21582;DHT22;10952;50.836;4.348;2024-03-02T06:13:23;7.20;99.90
21582;DHT22;10952;50.836;4.348;2024-03-02T06:15:56;7.20;99.90
21582;DHT22;10952;50.836;4.348;2024-03-02T06:18:25;7.20;99.90
21582;DHT22;10952;50.836;4.348;2024-03-02T06:20:51;7.20;99.90
21582;DHT22;10952;50.836;4.348;2024-03-02T06:23:19;7.10;99.90
21582;DHT22;10952;50.836;4.348;2024-03-02T06:26:00;7.20;99.90
21582;DHT22;10952;50.836;4.348;2024-03-02T06:28:25;7.20;99.90
21582;DHT22;10952;50.836;4.348;2024-03-02T06:30:51;7.30;99.90
21582;DHT22;10952;50.836;4.348;2024-03-02T06:33:19;7.20;99.90
21582;DHT22;10952;50.836;4.348;2024-03-02T06:35:44;7.10;99.90
21582;DHT22;10952;50.836;4.348;2024-03-02T06:38:13;7.10;99.90
21582;DHT22;10952;50.836;4.348;2024-03-02T06:40:42;7.20;99.90
21582;DHT22;10952;50.836;4.348;2024-03-02T06:43:08;7.20;99.90
21582;DHT22;10952;50.836;4.348;2024-03-02T06:45:34;7.10;99.90
21582;DHT22;10952;50.836;4.348;2024-03-02T06:48:07;7.10;99.90
21582;DHT22;10952;50.836;4.348;2024-03-02T06:50:33;7.10;99.90
21582;DHT22;10952;50.836;4.348;2024-03-02T06:53:00;7.10;99.90
21582;DHT22;10952;50.836;4.348;2024-03-02T06:55:26;7.10;99.90
21582;DHT22;10952;50.836;4.348;2024-03-02T06:57:54;7.10;99.90
21582;DHT22;10952;50.836;4.348;2024-03-02T07:00:19;7.00;99.90
21582;DHT22;10952;50.836;4.348;2024-03-02T07:02:46;7.00;99.90
21582;DHT22;10952;50.836;4.348;2024-03-02T07:05:23;7.00;99.90
21582;DHT22;10952;50.836;4.348;2024-03-02T07:07:53;7.00;99.90
21582;DHT22;10952;50.836;4.348;2024-03-02T07:10:25;7.00;99.90
21582;DHT22;10952;50.836;4.348;2024-03-02T07:13:00;7.00;99.90
21582;DHT22;10952;50.836;4.348;2024-03-02T07:15:34;7.10;99.90
21582;DHT22;10952;50.836;4.348;2024-03-02T07:18:33;7.10;99.90
21582;DHT22;10952;50.836;4.348;2024-03-02T07:21:03;7.10;99.90
21582;DHT22;10952;50.836;4.348;2024-03-02T07:23:29;7.10;99.90
21582;DHT22;10952;50.836;4.348;2024-03-02T07:25:57;7.10;99.90
21582;DHT22;10952;50.836;4.348;2024-03-02T07:28:29;7.10;99.90
21582;DHT22;10952;50.836;4.348;2024-03-02T07:31:05;7.10;99.90
21582;DHT22;10952;50.836;4.348;2024-03-02T07:33:40;7.20;99.90
21582;DHT22;10952;50.836;4.348;2024-03-02T07:36:30;7.20;99.90
21582;DHT22;10952;50.836;4.348;2024-03-02T07:38:57;7.20;99.90
21582;DHT22;10952;50.836;4.348;2024-03-02T07:41:24;7.20;99.90
21582;DHT22;10952;50.836;4.348;2024-03-02T07:43:57;7.10;99.90
21582;DHT22;10952;50.836;4.348;2024-03-02T07:46:28;7.20;99.90
21582;DHT22;10952;50.836;4.348;2024-03-02T07:48:55;7.20;99.90
21582;DHT22;10952;50.836;4.348;2024-03-02T07:51:23;7.40;99.90
21582;DHT22;10952;50.836;4.348;2024-03-02T07:53:55;7.40;99.90
21582;DHT22;10952;50.836;4.348;2024-03-02T07:56:25;7.50;99.90
21582;DHT22;10952;50.836;4.348;2024-03-02T07:58:56;7.50;99.90
21582;DHT22;10952;50.836;4.348;2024-03-02T08:01:27;7.50;99.90
21582;DHT22;10952;50.836;4.348;2024-03-02T08:04:00;7.40;99.90
21582;DHT22;10952;50.836;4.348;2024-03-02T08:06:30;7.50;99.90
21582;DHT22;10952;50.836;4.348;2024-03-02T08:08:58;7.50;99.90
21582;DHT22;10952;50.836;4.348;2024-03-02T08:11:35;7.50;99.90
21582;DHT22;10952;50.836;4.348;2024-03-02T08:14:01;7.60;99.90
21582;DHT22;10952;50.836;4.348;2024-03-02T08:16:27;7.60;99.90
21582;DHT22;10952;50.836;4.348;2024-03-02T08:18:54;7.70;99.90
21582;DHT22;10952;50.836;4.348;2024-03-02T08:21:24;7.70;99.90
21582;DHT22;10952;50.836;4.348;2024-03-02T08:23:52;7.80;99.90
21582;DHT22;10952;50.836;4.348;2024-03-02T08:26:28;7.90;99.90
21582;DHT22;10952;50.836;4.348;2024-03-02T08:28:58;8.00;99.90
21582;DHT22;10952;50.836;4.348;2024-03-02T08:31:42;8.00;99.90
21582;DHT22;10952;50.836;4.348;2024-03-02T08:34:18;8.10;99.90
21582;DHT22;10952;50.836;4.348;2024-03-02T08:36:47;8.20;99.90
21582;DHT22;10952;50.836;4.348;2024-03-02T08:39:16;8.30;99.90
21582;DHT22;10952;50.836;4.348;2024-03-02T08:41:55;8.30;99.90
21582;DHT22;10952;50.836;4.348;2024-03-02T08:44:23;8.40;99.90
21582;DHT22;10952;50.836;4.348;2024-03-02T08:46:56;8.40;99.90
21582;DHT22;10952;50.836;4.348;2024-03-02T08:49:21;8.50;99.90
21582;DHT22;10952;50.836;4.348;2024-03-02T08:51:49;8.60;99.90
21582;DHT22;10952;50.836;4.348;2024-03-02T08:54:24;8.60;99.90
21582;DHT22;10952;50.836;4.348;2024-03-02T08:56:59;8.80;99.90
21582;DHT22;10952;50.836;4.348;2024-03-02T08:59:25;8.90;99.90
21582;DHT22;10952;50.836;4.348;2024-03-02T09:01:56;8.90;99.90
21582;DHT22;10952;50.836;4.348;2024-03-02T09:04:23;9.00;99.90
21582;DHT22;10952;50.836;4.348;2024-03-02T09:06:49;9.10;99.90
21582;DHT22;10952;50.836;4.348;2024-03-02T09:09:15;9.20;99.90
21582;DHT22;10952;50.836;4.348;2024-03-02T09:11:41;9.20;99.90
21582;DHT22;10952;50.836;4.348;2024-03-02T09:14:08;9.30;99.90
21582;DHT22;10952;50.836;4.348;2024-03-02T09:16:34;9.30;99.90
21582;DHT22;10952;50.836;4.348;2024-03-02T09:19:01;9.30;99.90
21582;DHT22;10952;50.836;4.348;2024-03-02T09:21:27;9.40;99.90
21582;DHT22;10952;50.836;4.348;2024-03-02T09:23:55;9.40;99.90
21582;DHT22;10952;50.836;4.348;2024-03-02T09:26:30;9.50;99.90
21582;DHT22;10952;50.836;4.348;2024-03-02T09:28:57;9.50;99.90
21582;DHT22;10952;50.836;4.348;2024-03-02T09:31:23;9.50;99.90
21582;DHT22;10952;50.836;4.348;2024-03-02T09:33:51;9.50;99.90
21582;DHT22;10952;50.836;4.348;2024-03-02T09:36:23;9.70;99.90
21582;DHT22;10952;50.836;4.348;2024-03-02T09:38:52;9.90;99.90
21582;DHT22;10952;50.836;4.348;2024-03-02T09:41:17;10.10;99.90
21582;DHT22;10952;50.836;4.348;2024-03-02T09:43:43;10.20;99.90
21582;DHT22;10952;50.836;4.348;2024-03-02T09:46:10;10.30;99.90
21582;DHT22;10952;50.836;4.348;2024-03-02T09:48:39;10.50;99.90
21582;DHT22;10952;50.836;4.348;2024-03-02T09:51:05;10.20;99.90
21582;DHT22;10952;50.836;4.348;2024-03-02T09:53:32;10.10;99.90
21582;DHT22;10952;50.836;4.348;2024-03-02T09:56:00;10.20;99.90
21582;DHT22;10952;50.836;4.348;2024-03-02T09:58:26;10.30;99.90
21582;DHT22;10952;50.836;4.348;2024-03-02T10:00:51;10.50;99.90
21582;DHT22;10952;50.836;4.348;2024-03-02T10:03:27;10.60;99.90
21582;DHT22;10952;50.836;4.348;2024-03-02T10:06:09;10.90;99.90
21582;DHT22;10952;50.836;4.348;2024-03-02T10:08:44;11.00;99.90
21582;DHT22;10952;50.836;4.348;2024-03-02T10:11:33;11.00;99.90
21582;DHT22;10952;50.836;4.348;2024-03-02T10:14:13;11.10;99.90
21582;DHT22;10952;50.836;4.348;2024-03-02T10:16:44;11.00;99.90
21582;DHT22;10952;50.836;4.348;2024-03-02T10:19:20;11.20;99.90
21582;DHT22;10952;50.836;4.348;2024-03-02T10:21:51;11.20;99.90
21582;DHT22;10952;50.836;4.348;2024-03-02T10:24:17;11.30;99.90
21582;DHT22;10952;50.836;4.348;2024-03-02T10:26:43;11.60;99.90
21582;DHT22;10952;50.836;4.348;2024-03-02T10:29:12;11.70;99.90
21582;DHT22;10952;50.836;4.348;2024-03-02T10:31:43;11.80;99.90
21582;DHT22;10952;50.836;4.348;2024-03-02T10:34:10;12.00;99.90
21582;DHT22;10952;50.836;4.348;2024-03-02T10:36:43;12.00;99.90
21582;DHT22;10952;50.836;4.348;2024-03-02T10:39:14;12.20;99.90
21582;DHT22;10952;50.836;4.348;2024-03-02T10:41:41;12.30;99.90
21582;DHT22;10952;50.836;4.348;2024-03-02T10:44:10;12.20;99.90
21582;DHT22;10952;50.836;4.348;2024-03-02T10:46:37;12.20;99.90
21582;DHT22;10952;50.836;4.348;2024-03-02T10:49:04;12.30;99.90
21582;DHT22;10952;50.836;4.348;2024-03-02T10:51:34;12.80;99.90
21582;DHT22;10952;50.836;4.348;2024-03-02T10:54:02;13.30;99.90
21582;DHT22;10952;50.836;4.348;2024-03-02T10:56:33;13.30;99.90
21582;DHT22;10952;50.836;4.348;2024-03-02T10:59:03;13.20;99.90
21582;DHT22;10952;50.836;4.348;2024-03-02T11:01:32;13.30;99.90
21582;DHT22;10952;50.836;4.348;2024-03-02T11:03:59;13.20;99.90
21582;DHT22;10952;50.836;4.348;2024-03-02T11:06:28;13.20;99.90
21582;DHT22;10952;50.836;4.348;2024-03-02T11:08:57;13.10;99.90
21582;DHT22;10952;50.836;4.348;2024-03-02T11:11:30;12.90;99.90
21582;DHT22;10952;50.836;4.348;2024-03-02T11:14:01;12.80;99.90
21582;DHT22;10952;50.836;4.348;2024-03-02T11:16:37;12.90;99.90
21582;DHT22;10952;50.836;4.348;2024-03-02T11:19:06;13.00;99.90
21582;DHT22;10952;50.836;4.348;2024-03-02T11:21:34;13.00;99.90
21582;DHT22;10952;50.836;4.348;2024-03-02T11:26:50;13.00;99.90
21582;DHT22;10952;50.836;4.348;2024-03-02T11:32:22;13.40;99.90
21582;DHT22;10952;50.836;4.348;2024-03-02T11:34:52;14.00;99.90
21582;DHT22;10952;50.836;4.348;2024-03-02T11:37:19;14.30;99.90
21582;DHT22;10952;50.836;4.348;2024-03-02T11:39:51;14.20;99.90
21582;DHT22;10952;50.836;4.348;2024-03-02T11:42:17;14.10;99.90
21582;DHT22;10952;50.836;4.348;2024-03-02T11:44:47;14.20;99.90
21582;DHT22;10952;50.836;4.348;2024-03-02T11:47:15;14.30;99.90
21582;DHT22;10952;50.836;4.348;2024-03-02T11:49:44;14.90;99.90
21582;DHT22;10952;50.836;4.348;2024-03-02T11:52:14;16.20;99.90
21582;DHT22;10952;50.836;4.348;2024-03-02T11:54:42;16.60;99.90
21582;DHT22;10952;50.836;4.348;2024-03-02T11:57:18;16.60;99.90
21582;DHT22;10952;50.836;4.348;2024-03-02T11:59:46;16.70;99.90
21582;DHT22;10952;50.836;4.348;2024-03-02T12:02:19;16.60;99.90
21582;DHT22;10952;50.836;4.348;2024-03-02T12:04:49;16.60;99.90
21582;DHT22;10952;50.836;4.348;2024-03-02T12:07:25;16.20;99.90
21582;DHT22;10952;50.836;4.348;2024-03-02T12:10:03;15.70;99.90
21582;DHT22;10952;50.836;4.348;2024-03-02T12:12:28;15.00;99.90
21582;DHT22;10952;50.836;4.348;2024-03-02T12:14:58;14.50;99.90
21582;DHT22;10952;50.836;4.348;2024-03-02T12:17:29;14.30;99.90
21582;DHT22;10952;50.836;4.348;2024-03-02T12:19:56;14.10;99.90
21582;DHT22;10952;50.836;4.348;2024-03-02T12:22:22;13.90;99.90
21582;DHT22;10952;50.836;4.348;2024-03-02T12:24:51;14.30;99.90
21582;DHT22;10952;50.836;4.348;2024-03-02T12:27:17;15.10;99.90
21582;DHT22;10952;50.836;4.348;2024-03-02T12:29:49;15.70;99.90
21582;DHT22;10952;50.836;4.348;2024-03-02T12:32:15;15.90;99.90
21582;DHT22;10952;50.836;4.348;2024-03-02T12:34:41;16.00;99.90
21582;DHT22;10952;50.836;4.348;2024-03-02T12:37:11;15.90;99.90
21582;DHT22;10952;50.836;4.348;2024-03-02T12:39:39;15.40;99.90
21582;DHT22;10952;50.836;4.348;2024-03-02T12:42:07;15.50;99.90
21582;DHT22;10952;50.836;4.348;2024-03-02T12:44:37;15.60;99.90
21582;DHT22;10952;50.836;4.348;2024-03-02T12:47:05;15.10;99.90
21582;DHT22;10952;50.836;4.348;2024-03-02T12:49:36;14.90;99.90
21582;DHT22;10952;50.836;4.348;2024-03-02T12:52:02;14.40;99.90
21582;DHT22;10952;50.836;4.348;2024-03-02T12:54:28;14.20;99.90
21582;DHT22;10952;50.836;4.348;2024-03-02T12:56:53;14.30;99.90
21582;DHT22;10952;50.836;4.348;2024-03-02T12:59:20;14.70;99.90
21582;DHT22;10952;50.836;4.348;2024-03-02T13:01:54;14.90;99.90
21582;DHT22;10952;50.836;4.348;2024-03-02T13:04:24;15.10;99.90
21582;DHT22;10952;50.836;4.348;2024-03-02T13:06:52;15.20;99.90
21582;DHT22;10952;50.836;4.348;2024-03-02T13:09:17;15.20;99.90
21582;DHT22;10952;50.836;4.348;2024-03-02T13:11:43;15.00;99.90
21582;DHT22;10952;50.836;4.348;2024-03-02T13:14:10;14.90;99.90
21582;DHT22;10952;50.836;4.348;2024-03-02T13:16:40;14.60;99.90
21582;DHT22;10952;50.836;4.348;2024-03-02T13:19:11;14.40;99.90
21582;DHT22;10952;50.836;4.348;2024-03-02T13:21:37;14.20;99.90
21582;DHT22;10952;50.836;4.348;2024-03-02T13:24:04;14.00;99.90
21582;DHT22;10952;50.836;4.348;2024-03-02T13:26:31;13.80;99.90
21582;DHT22;10952;50.836;4.348;2024-03-02T13:28:58;13.90;99.90
21582;DHT22;10952;50.836;4.348;2024-03-02T13:31:24;14.10;99.90
21582;DHT22;10952;50.836;4.348;2024-03-02T13:33:51;14.20;99.90
21582;DHT22;10952;50.836;4.348;2024-03-02T13:36:18;14.20;99.90
21582;DHT22;10952;50.836;4.348;2024-03-02T13:38:45;14.20;99.90
21582;DHT22;10952;50.836;4.348;2024-03-02T13:41:11;14.30;99.90
21582;DHT22;10952;50.836;4.348;2024-03-02T13:43:37;14.40;99.90
21582;DHT22;10952;50.836;4.348;2024-03-02T13:46:07;14.50;99.90
21582;DHT22;10952;50.836;4.348;2024-03-02T13:48:32;14.40;99.90
21582;DHT22;10952;50.836;4.348;2024-03-02T13:51:01;14.10;99.90
21582;DHT22;10952;50.836;4.348;2024-03-02T13:53:27;14.00;99.90
21582;DHT22;10952;50.836;4.348;2024-03-02T13:55:53;14.10;99.90
21582;DHT22;10952;50.836;4.348;2024-03-02T13:58:19;14.30;99.90
21582;DHT22;10952;50.836;4.348;2024-03-02T14:00:47;14.30;99.90
21582;DHT22;10952;50.836;4.348;2024-03-02T14:03:13;14.30;99.90
21582;DHT22;10952;50.836;4.348;2024-03-02T14:05:39;14.20;99.90
21582;DHT22;10952;50.836;4.348;2024-03-02T14:08:11;14.20;99.90
21582;DHT22;10952;50.836;4.348;2024-03-02T14:10:37;14.10;99.90
21582;DHT22;10952;50.836;4.348;2024-03-02T14:13:06;13.90;99.90
21582;DHT22;10952;50.836;4.348;2024-03-02T14:15:34;13.80;99.90
21582;DHT22;10952;50.836;4.348;2024-03-02T14:18:05;13.70;99.90
21582;DHT22;10952;50.836;4.348;2024-03-02T14:20:31;13.60;99.90
21582;DHT22;10952;50.836;4.348;2024-03-02T14:22:58;13.50;99.90
21582;DHT22;10952;50.836;4.348;2024-03-02T14:25:26;13.40;99.90
21582;DHT22;10952;50.836;4.348;2024-03-02T14:27:53;13.30;99.90
21582;DHT22;10952;50.836;4.348;2024-03-02T14:30:20;13.20;99.90
21582;DHT22;10952;50.836;4.348;2024-03-02T14:32:48;13.10;99.90
21582;DHT22;10952;50.836;4.348;2024-03-02T14:35:13;13.10;99.90
21582;DHT22;10952;50.836;4.348;2024-03-02T14:37:40;13.20;99.90
21582;DHT22;10952;50.836;4.348;2024-03-02T14:40:07;13.20;99.90
21582;DHT22;10952;50.836;4.348;2024-03-02T14:42:35;13.20;99.90
21582;DHT22;10952;50.836;4.348;2024-03-02T14:45:01;13.20;99.90
21582;DHT22;10952;50.836;4.348;2024-03-02T14:47:29;13.20;99.90
21582;DHT22;10952;50.836;4.348;2024-03-02T14:49:59;13.20;99.90
21582;DHT22;10952;50.836;4.348;2024-03-02T14:52:25;13.20;99.90
21582;DHT22;10952;50.836;4.348;2024-03-02T14:54:51;13.30;99.90
21582;DHT22;10952;50.836;4.348;2024-03-02T14:57:17;13.20;99.90
21582;DHT22;10952;50.836;4.348;2024-03-02T14:59:42;13.30;99.90
21582;DHT22;10952;50.836;4.348;2024-03-02T15:02:08;13.30;99.90
21582;DHT22;10952;50.836;4.348;2024-03-02T15:04:40;13.30;99.90
21582;DHT22;10952;50.836;4.348;2024-03-02T15:07:05;13.30;99.90
21582;DHT22;10952;50.836;4.348;2024-03-02T15:09:32;13.30;99.90
21582;DHT22;10952;50.836;4.348;2024-03-02T15:12:03;13.50;99.90
21582;DHT22;10952;50.836;4.348;2024-03-02T15:14:30;13.50;99.90
21582;DHT22;10952;50.836;4.348;2024-03-02T15:17:04;13.40;99.90
21582;DHT22;10952;50.836;4.348;2024-03-02T15:19:29;13.30;99.90
21582;DHT22;10952;50.836;4.348;2024-03-02T15:21:55;13.20;99.90
21582;DHT22;10952;50.836;4.348;2024-03-02T15:24:21;13.20;99.90
21582;DHT22;10952;50.836;4.348;2024-03-02T15:26:46;13.20;99.90
21582;DHT22;10952;50.836;4.348;2024-03-02T15:29:13;13.10;99.90
21582;DHT22;10952;50.836;4.348;2024-03-02T15:31:39;13.10;99.90
21582;DHT22;10952;50.836;4.348;2024-03-02T15:34:06;13.00;99.90
21582;DHT22;10952;50.836;4.348;2024-03-02T15:36:34;13.00;99.90
21582;DHT22;10952;50.836;4.348;2024-03-02T15:39:02;13.00;99.90
21582;DHT22;10952;50.836;4.348;2024-03-02T15:41:36;13.00;99.90
21582;DHT22;10952;50.836;4.348;2024-03-02T15:44:05;12.90;99.90
21582;DHT22;10952;50.836;4.348;2024-03-02T15:46:32;12.90;99.90
21582;DHT22;10952;50.836;4.348;2024-03-02T15:48:58;12.90;99.90
21582;DHT22;10952;50.836;4.348;2024-03-02T15:51:26;12.80;99.90
21582;DHT22;10952;50.836;4.348;2024-03-02T15:53:53;13.00;99.90
21582;DHT22;10952;50.836;4.348;2024-03-02T15:56:21;13.00;99.90